Time;durP1;ratioP1;P1;durP2;ratioP2;P2;SDS_P1;SDS_P2;PMS_P1;PMS_P2;Temp;Humidity;BMP_temperature;BMP_pressure;BME280_temperature;BME280_humidity;BME280_pressure;Samples;Min_cycle;Max_cycle;Signal;HPM_P1;HPM_P2
2021/07/07 00:01:38;;;;;;;7.43;2.33;;;14.10;99.90;;;;;;5034208;28;20107;-86
2021/07/07 00:04:05;;;;;;;6.55;2.20;;;14.10;99.90;;;;;;5050227;28;20049;-86
2021/07/07 00:06:32;;;;;;;7.40;2.00;;;14.00;99.90;;;;;;5050442;28;20053;-86
2021/07/07 00:08:59;;;;;;;8.77;2.10;;;14.00;99.90;;;;;;5017964;28;20099;-86
2021/07/07 00:11:25;;;;;;;6.32;2.70;;;14.00;99.90;;;;;;5033376;28;20049;-87
2021/07/07 00:13:52;;;;;;;6.03;2.22;;;14.00;99.90;;;;;;5068061;28;20513;-86
2021/07/07 00:16:19;;;;;;;5.63;2.10;;;14.00;99.90;;;;;;5033839;28;20409;-86
2021/07/07 00:18:46;;;;;;;6.28;2.20;;;13.90;99.90;;;;;;5017789;28;20037;-86
2021/07/07 00:21:13;;;;;;;6.75;2.25;;;13.90;99.90;;;;;;5017502;28;20049;-86
2021/07/07 00:23:40;;;;;;;5.30;2.38;;;13.90;99.90;;;;;;5033753;28;20042;-86
2021/07/07 00:26:07;;;;;;;10.75;2.20;;;13.90;99.90;;;;;;5017528;28;20123;-85
2021/07/07 00:28:34;;;;;;;8.60;2.28;;;13.80;99.90;;;;;;5017683;28;20099;-86
2021/07/07 00:31:01;;;;;;;7.13;2.00;;;13.80;99.90;;;;;;5018098;28;20041;-87
2021/07/07 00:33:27;;;;;;;7.80;2.10;;;13.80;99.90;;;;;;5033717;28;20050;-86
2021/07/07 00:35:54;;;;;;;7.78;1.90;;;13.90;99.90;;;;;;5033775;28;20133;-86
2021/07/07 00:38:21;;;;;;;6.65;2.25;;;13.90;99.90;;;;;;5033681;28;20482;-86
2021/07/07 00:40:48;;;;;;;4.07;1.73;;;13.80;99.90;;;;;;5034170;28;20418;-86
2021/07/07 00:43:16;;;;;;;5.85;2.22;;;13.90;99.90;;;;;;5049624;28;20054;-86
2021/07/07 00:45:44;;;;;;;5.70;2.10;;;13.80;99.90;;;;;;5033867;28;20454;-86
2021/07/07 00:48:10;;;;;;;6.00;2.25;;;13.80;99.90;;;;;;5065916;28;20045;-86
2021/07/07 00:50:38;;;;;;;6.80;2.30;;;13.70;99.90;;;;;;5068088;28;20048;-87
2021/07/07 00:53:05;;;;;;;6.65;2.00;;;13.70;99.90;;;;;;5049848;28;20054;-86
2021/07/07 00:55:33;;;;;;;7.40;2.05;;;13.60;99.90;;;;;;5049806;28;20168;-86
2021/07/07 00:58:00;;;;;;;9.18;2.30;;;13.60;99.90;;;;;;5050106;28;20057;-86
2021/07/07 01:00:27;;;;;;;9.18;2.30;;;13.60;99.90;;;;;;5049657;28;20048;-86
2021/07/07 01:02:58;;;;;;;5.72;2.03;;;13.60;99.90;;;;;;5049646;28;20046;-86
2021/07/07 01:05:25;;;;;;;6.40;2.30;;;13.60;99.90;;;;;;5049489;28;20045;-86
2021/07/07 01:07:52;;;;;;;8.43;2.30;;;13.50;99.90;;;;;;5033311;28;20057;-86
2021/07/07 01:10:18;;;;;;;6.85;2.40;;;13.50;99.90;;;;;;5049343;28;20128;-86
2021/07/07 01:12:46;;;;;;;7.35;2.10;;;13.40;99.90;;;;;;5049900;28;20045;-86
2021/07/07 01:15:20;;;;;;;6.07;2.33;;;13.40;99.90;;;;;;5049679;28;20072;-86
2021/07/07 01:17:48;;;;;;;6.78;2.25;;;13.40;99.90;;;;;;5067570;28;20073;-87
2021/07/07 01:20:18;;;;;;;5.90;2.05;;;13.40;99.90;;;;;;5049399;28;20506;-86
2021/07/07 01:22:45;;;;;;;5.32;2.22;;;13.40;99.90;;;;;;5067467;28;20041;-86
2021/07/07 01:25:14;;;;;;;4.47;1.98;;;13.30;99.90;;;;;;5052951;28;20509;-86
2021/07/07 01:27:43;;;;;;;8.00;2.30;;;13.30;99.90;;;;;;5071072;28;20507;-86
2021/07/07 01:30:17;;;;;;;8.63;2.42;;;13.40;99.90;;;;;;5053562;28;20052;-86
2021/07/07 01:32:45;;;;;;;7.32;2.53;;;13.30;99.90;;;;;;5070867;28;20042;-87
2021/07/07 01:35:13;;;;;;;6.00;2.50;;;13.30;99.90;;;;;;5052878;28;20053;-85
2021/07/07 01:37:41;;;;;;;6.13;2.55;;;13.30;99.90;;;;;;5053301;28;20444;-87
2021/07/07 01:40:10;;;;;;;11.23;2.83;;;13.30;99.90;;;;;;5037199;28;20065;-87
2021/07/07 01:42:37;;;;;;;8.70;2.65;;;13.30;99.90;;;;;;5037065;28;20048;-87
2021/07/07 01:45:08;;;;;;;5.65;2.40;;;13.30;99.90;;;;;;5036911;28;20049;-87
2021/07/07 01:47:37;;;;;;;5.90;2.70;;;13.30;99.90;;;;;;5070500;28;20466;-87
2021/07/07 01:50:06;;;;;;;6.28;2.50;;;13.30;99.90;;;;;;5053358;28;20037;-87
2021/07/07 01:52:34;;;;;;;4.63;2.90;;;13.30;99.90;;;;;;5052668;28;20425;-86
2021/07/07 01:55:01;;;;;;;5.50;2.85;;;13.30;99.90;;;;;;5036657;28;20132;-86
2021/07/07 01:57:42;;;;;;;7.88;3.05;;;13.30;99.90;;;;;;5036826;28;20091;-87
2021/07/07 02:00:24;;;;;;;7.68;2.50;;;13.30;99.90;;;;;;5053195;28;20092;-87
2021/07/07 02:02:53;;;;;;;6.63;2.58;;;13.30;99.90;;;;;;5053362;28;20046;-86
2021/07/07 02:05:29;;;;;;;9.70;2.78;;;13.40;99.90;;;;;;5052586;28;20045;-87
2021/07/07 02:07:57;;;;;;;5.43;2.72;;;13.40;99.90;;;;;;5070799;28;20056;-88
2021/07/07 02:10:24;;;;;;;6.88;2.65;;;13.40;99.90;;;;;;5036254;28;20045;-87
2021/07/07 02:12:51;;;;;;;8.85;2.90;;;13.50;99.90;;;;;;5036688;28;20061;-87
2021/07/07 02:15:21;;;;;;;7.63;3.10;;;13.50;99.90;;;;;;5070354;28;20072;-87
2021/07/07 02:17:49;;;;;;;9.52;2.80;;;13.50;99.90;;;;;;5053118;28;20045;-87
2021/07/07 02:20:19;;;;;;;10.50;3.10;;;13.50;99.90;;;;;;5036869;28;20513;-88
2021/07/07 02:22:46;;;;;;;7.85;3.65;;;13.50;99.90;;;;;;5037208;28;20042;-88
2021/07/07 02:25:20;;;;;;;8.98;3.00;;;13.50;99.90;;;;;;5036383;28;20054;-87
2021/07/07 02:27:49;;;;;;;7.43;2.70;;;13.50;99.90;;;;;;5052588;28;20100;-87
2021/07/07 02:30:18;;;;;;;11.25;3.25;;;13.50;99.90;;;;;;5052778;28;20107;-87
2021/07/07 02:32:46;;;;;;;5.22;2.60;;;13.40;99.90;;;;;;5052212;28;20176;-87
2021/07/07 02:35:17;;;;;;;7.68;2.85;;;13.40;99.90;;;;;;5069897;28;20049;-87
2021/07/07 02:37:47;;;;;;;6.78;2.85;;;13.30;99.90;;;;;;5069852;28;20482;-87
2021/07/07 02:40:14;;;;;;;7.18;3.00;;;13.30;99.90;;;;;;5069835;28;20046;-87
2021/07/07 02:42:41;;;;;;;6.35;2.60;;;13.30;99.90;;;;;;5069622;28;20540;-88
2021/07/07 02:45:10;;;;;;;10.07;3.00;;;13.20;99.90;;;;;;5036832;28;20046;-87
2021/07/07 02:47:38;;;;;;;7.15;2.88;;;13.20;99.90;;;;;;5036374;28;20045;-87
2021/07/07 02:50:07;;;;;;;7.30;2.60;;;13.20;99.90;;;;;;5035899;28;20050;-87
2021/07/07 02:52:34;;;;;;;6.38;2.92;;;13.10;99.90;;;;;;5052379;28;20042;-87
2021/07/07 02:55:01;;;;;;;9.02;2.90;;;13.10;99.90;;;;;;5052695;28;20140;-87
2021/07/07 02:57:28;;;;;;;8.25;3.05;;;13.10;99.90;;;;;;5036029;28;20080;-88
2021/07/07 02:59:55;;;;;;;9.32;3.15;;;13.10;99.90;;;;;;5051819;28;20099;-87
2021/07/07 03:02:22;;;;;;;8.73;3.20;;;13.10;99.90;;;;;;5051852;28;20501;-83
2021/07/07 03:04:48;;;;;;;7.57;3.33;;;13.10;99.90;;;;;;5035361;28;20136;-87
2021/07/07 03:07:15;;;;;;;6.32;3.05;;;13.10;99.90;;;;;;5035508;28;20056;-88
2021/07/07 03:09:42;;;;;;;6.07;3.40;;;13.10;99.90;;;;;;5051449;28;20406;-87
2021/07/07 03:12:09;;;;;;;7.13;3.30;;;13.10;99.90;;;;;;5035116;28;20120;-86
2021/07/07 03:14:35;;;;;;;8.15;3.33;;;13.10;99.90;;;;;;5035049;28;20091;-87
2021/07/07 03:17:02;;;;;;;5.70;3.65;;;13.10;99.90;;;;;;5035608;28;20383;-88
2021/07/07 03:19:29;;;;;;;7.13;3.30;;;13.10;99.90;;;;;;5035141;28;20041;-87
2021/07/07 03:21:56;;;;;;;5.93;3.10;;;13.10;99.90;;;;;;5051779;28;20041;-88
2021/07/07 03:24:23;;;;;;;9.98;3.38;;;13.10;99.90;;;;;;5052195;28;20191;-87
2021/07/07 03:26:50;;;;;;;8.23;3.35;;;13.10;99.90;;;;;;5035082;28;20049;-87
2021/07/07 03:29:16;;;;;;;6.03;3.45;;;13.10;99.90;;;;;;5051554;28;20046;-87
2021/07/07 03:31:43;;;;;;;9.10;3.90;;;13.10;99.90;;;;;;5034870;28;20067;-87
2021/07/07 03:34:10;;;;;;;6.95;3.83;;;13.10;99.90;;;;;;5035492;28;20124;-87
2021/07/07 03:36:37;;;;;;;8.07;3.50;;;13.10;99.90;;;;;;5034890;28;20497;-87
2021/07/07 03:39:06;;;;;;;7.80;3.58;;;13.10;99.90;;;;;;5035747;28;20129;-87
2021/07/07 03:41:33;;;;;;;8.00;3.78;;;13.20;99.90;;;;;;5018778;28;20073;-87
2021/07/07 03:44:00;;;;;;;7.78;3.30;;;13.10;99.90;;;;;;5035060;28;20045;-87
2021/07/07 03:46:27;;;;;;;7.30;3.53;;;13.10;99.90;;;;;;5050214;28;20053;-87
2021/07/07 03:48:54;;;;;;;10.13;4.32;;;13.10;99.90;;;;;;5050990;28;20046;-86
2021/07/07 03:51:20;;;;;;;10.77;4.03;;;13.10;99.90;;;;;;5035003;28;20057;-88
2021/07/07 03:53:48;;;;;;;11.18;3.60;;;13.20;99.90;;;;;;5034715;28;20399;-87
2021/07/07 03:56:15;;;;;;;6.35;3.15;;;13.10;99.90;;;;;;5034910;28;20048;-87
2021/07/07 03:58:41;;;;;;;6.63;3.22;;;13.10;99.90;;;;;;5034512;28;20099;-87
2021/07/07 04:01:08;;;;;;;7.60;3.45;;;13.10;99.90;;;;;;5051081;28;20124;-86
2021/07/07 04:03:36;;;;;;;8.32;3.65;;;13.10;99.90;;;;;;5034284;28;20081;-86
2021/07/07 04:06:02;;;;;;;6.32;3.50;;;13.10;99.90;;;;;;5034450;28;20449;-87
2021/07/07 04:08:29;;;;;;;7.60;3.30;;;13.10;99.90;;;;;;5034711;28;20049;-87
2021/07/07 04:10:56;;;;;;;7.72;3.45;;;13.20;99.90;;;;;;5050697;28;20057;-87
2021/07/07 04:13:24;;;;;;;9.25;3.88;;;13.20;99.90;;;;;;5034584;28;20038;-87
2021/07/07 04:15:52;;;;;;;6.60;3.40;;;13.20;99.90;;;;;;5034412;28;20083;-87
2021/07/07 04:18:19;;;;;;;9.63;3.70;;;13.20;99.90;;;;;;5034693;28;20042;-88
2021/07/07 04:20:46;;;;;;;7.70;3.60;;;13.20;99.90;;;;;;5050529;28;20128;-87
2021/07/07 04:23:12;;;;;;;9.60;3.63;;;13.30;99.90;;;;;;5034593;28;20124;-87
2021/07/07 04:25:40;;;;;;;11.23;3.63;;;13.30;99.90;;;;;;5017727;28;20099;-87
2021/07/07 04:28:07;;;;;;;7.75;3.70;;;13.30;99.90;;;;;;5050442;28;20045;-87
2021/07/07 04:30:35;;;;;;;7.60;3.35;;;13.30;99.90;;;;;;5050052;28;20076;-86
2021/07/07 04:33:03;;;;;;;8.18;3.60;;;13.40;99.90;;;;;;5050395;28;20548;-87
2021/07/07 04:35:31;;;;;;;9.23;3.00;;;13.40;99.90;;;;;;5050751;28;20544;-86
2021/07/07 04:37:58;;;;;;;8.52;3.40;;;13.40;99.90;;;;;;5050316;28;20052;-87
2021/07/07 04:40:26;;;;;;;11.75;3.70;;;13.40;99.90;;;;;;5034120;28;20045;-87
2021/07/07 04:42:53;;;;;;;6.68;3.13;;;13.50;99.90;;;;;;5050266;28;20045;-87
2021/07/07 04:45:20;;;;;;;6.03;2.92;;;13.50;99.90;;;;;;5050286;28;20050;-87
2021/07/07 04:47:47;;;;;;;9.90;3.50;;;13.50;99.90;;;;;;5033870;28;20430;-87
2021/07/07 04:50:17;;;;;;;7.13;3.30;;;13.50;99.90;;;;;;5034421;28;20045;-87
2021/07/07 04:52:44;;;;;;;7.03;3.60;;;13.60;99.90;;;;;;5050068;28;20053;-87
2021/07/07 04:55:12;;;;;;;6.38;3.20;;;13.60;99.90;;;;;;5068077;28;20053;-87
2021/07/07 04:57:42;;;;;;;8.88;3.10;;;13.60;99.90;;;;;;5052955;28;20046;-87
2021/07/07 05:00:13;;;;;;;5.20;3.10;;;13.70;99.90;;;;;;5038979;28;20128;-87
2021/07/07 05:02:44;;;;;;;8.27;2.78;;;13.80;99.90;;;;;;5053858;28;20096;-86
2021/07/07 05:05:12;;;;;;;9.25;2.83;;;13.90;99.90;;;;;;5037991;28;20049;-87
2021/07/07 05:07:39;;;;;;;6.70;2.80;;;13.90;99.90;;;;;;5037780;28;20049;-87
2021/07/07 05:10:07;;;;;;;5.97;3.10;;;13.90;99.90;;;;;;5054236;28;20539;-87
2021/07/07 05:12:34;;;;;;;7.63;3.00;;;14.00;99.90;;;;;;5038238;28;20489;-87
2021/07/07 05:15:04;;;;;;;5.47;2.70;;;14.00;99.90;;;;;;5037529;28;20060;-87
2021/07/07 05:17:31;;;;;;;7.38;2.97;;;14.10;99.90;;;;;;5054223;28;20478;-88
2021/07/07 05:19:58;;;;;;;5.85;2.67;;;14.20;99.90;;;;;;5054123;28;20112;-87
2021/07/07 05:22:26;;;;;;;5.95;3.20;;;14.20;99.90;;;;;;5054546;28;20041;-87
2021/07/07 05:24:53;;;;;;;8.85;3.13;;;14.30;99.90;;;;;;5037201;28;20127;-87
2021/07/07 05:27:20;;;;;;;5.85;3.00;;;14.40;99.90;;;;;;5054025;28;20098;-87
2021/07/07 05:29:47;;;;;;;8.57;2.70;;;14.50;99.90;;;;;;5037176;28;20125;-86
2021/07/07 05:32:20;;;;;;;6.43;2.75;;;14.60;99.90;;;;;;5053894;28;20520;-87
2021/07/07 05:34:48;;;;;;;6.00;2.90;;;14.60;99.90;;;;;;5054487;28;20054;-87
2021/07/07 05:37:20;;;;;;;8.75;2.60;;;14.70;99.90;;;;;;5053911;28;20045;-87
2021/07/07 05:39:51;;;;;;;5.97;2.67;;;14.80;99.90;;;;;;5054147;28;20387;-87
2021/07/07 05:42:20;;;;;;;6.90;2.90;;;14.80;99.90;;;;;;5053944;28;20049;-88
2021/07/07 05:44:48;;;;;;;5.05;2.40;;;14.90;99.90;;;;;;5053712;28;20045;-87
2021/07/07 05:47:16;;;;;;;9.07;2.92;;;15.00;99.90;;;;;;5054776;28;20116;-87
2021/07/07 05:49:43;;;;;;;8.50;2.45;;;15.00;99.90;;;;;;5053230;28;20449;-86
2021/07/07 05:52:12;;;;;;;6.82;2.53;;;15.10;99.90;;;;;;5070942;28;20079;-87
2021/07/07 05:54:39;;;;;;;6.20;2.90;;;15.10;99.90;;;;;;5053222;28;20055;-87
2021/07/07 05:57:06;;;;;;;8.07;3.03;;;15.10;99.90;;;;;;5053387;28;20052;-88
2021/07/07 05:59:33;;;;;;;5.93;2.63;;;15.20;99.90;;;;;;5053570;28;20057;-87
2021/07/07 06:02:00;;;;;;;5.60;2.60;;;15.30;99.90;;;;;;5036954;28;20045;-88
2021/07/07 06:04:27;;;;;;;8.13;2.30;;;15.40;99.90;;;;;;5070813;28;20041;-86
2021/07/07 06:06:54;;;;;;;7.25;2.88;;;15.50;99.90;;;;;;5039900;28;20045;-87
2021/07/07 06:09:21;;;;;;;5.97;2.60;;;15.70;99.90;;;;;;5033501;28;20481;-87
2021/07/07 06:11:48;;;;;;;10.95;2.67;;;15.80;99.90;;;;;;5070410;28;20116;-87
2021/07/07 06:14:15;;;;;;;6.63;2.67;;;15.80;99.90;;;;;;5056750;28;20052;-87
2021/07/07 06:16:41;;;;;;;6.85;2.42;;;15.80;99.90;;;;;;5054117;28;20098;-88
2021/07/07 06:19:08;;;;;;;4.22;2.10;;;15.90;99.90;;;;;;5038441;28;20615;-88
2021/07/07 06:21:35;;;;;;;9.80;2.25;;;16.00;99.90;;;;;;5020561;28;20049;-87
2021/07/07 06:24:02;;;;;;;5.38;2.05;;;16.10;99.90;;;;;;5020398;28;20558;-87
2021/07/07 06:26:31;;;;;;;6.78;2.30;;;16.10;99.90;;;;;;5053052;28;20064;-87
2021/07/07 06:28:58;;;;;;;4.43;2.10;;;16.20;99.90;;;;;;5053070;28;20051;-88
2021/07/07 06:31:25;;;;;;;7.65;2.15;;;16.20;99.90;;;;;;5036445;28;20046;-89
2021/07/07 06:33:52;;;;;;;4.57;1.95;;;16.30;99.90;;;;;;5052611;28;20041;-88
2021/07/07 06:36:19;;;;;;;4.95;1.88;;;16.40;99.90;;;;;;5052788;28;20049;-88
2021/07/07 06:38:45;;;;;;;5.78;1.98;;;16.40;99.90;;;;;;5037021;28;20057;-88
2021/07/07 06:41:12;;;;;;;4.75;1.75;;;16.50;99.90;;;;;;5020154;28;20124;-88
2021/07/07 06:43:40;;;;;;;4.85;1.80;;;16.60;99.90;;;;;;5036703;28;20049;-89
2021/07/07 06:46:07;;;;;;;7.10;1.90;;;16.70;99.90;;;;;;5036373;28;20104;-88
2021/07/07 06:48:34;;;;;;;5.03;1.90;;;16.80;99.90;;;;;;5036689;28;20041;-88
2021/07/07 06:51:01;;;;;;;6.72;2.25;;;16.90;99.90;;;;;;5020493;28;20045;-87
2021/07/07 06:53:28;;;;;;;5.40;2.10;;;16.90;99.90;;;;;;5052746;28;20048;-87
2021/07/07 06:55:55;;;;;;;10.95;1.95;;;17.00;99.90;;;;;;5035676;28;20053;-86
2021/07/07 06:58:22;;;;;;;4.47;1.55;;;17.00;99.90;;;;;;5036729;28;20469;-88
2021/07/07 07:00:49;;;;;;;7.80;2.00;;;17.00;99.90;;;;;;5036121;28;20079;-87
2021/07/07 07:03:16;;;;;;;7.38;1.90;;;17.10;99.90;;;;;;5035406;28;20516;-87
2021/07/07 07:05:43;;;;;;;5.30;1.90;;;17.10;99.90;;;;;;5052131;28;20421;-87
2021/07/07 07:08:13;;;;;;;5.05;2.00;;;17.10;99.90;;;;;;5035823;28;20049;-87
2021/07/07 07:10:39;;;;;;;5.47;2.10;;;17.10;99.90;;;;;;5020128;28;20045;-88
2021/07/07 07:13:07;;;;;;;6.35;2.00;;;17.20;99.90;;;;;;5069010;28;20573;-90
2021/07/07 07:15:34;;;;;;;5.80;2.10;;;17.30;99.90;;;;;;5035825;28;20189;-88
2021/07/07 07:18:00;;;;;;;5.05;2.00;;;17.30;99.90;;;;;;5035723;28;20041;-88
2021/07/07 07:20:29;;;;;;;5.70;2.05;;;17.40;99.90;;;;;;5050876;28;20110;-79
2021/07/07 07:23:00;;;;;;;5.97;1.95;;;17.50;99.90;;;;;;5051237;28;20466;-78
2021/07/07 07:25:28;;;;;;;5.38;1.77;;;17.50;99.90;;;;;;5051161;28;20057;-85
2021/07/07 07:27:55;;;;;;;6.22;1.70;;;17.60;99.90;;;;;;5050707;28;20037;-80
2021/07/07 07:30:23;;;;;;;6.93;2.20;;;17.70;99.90;;;;;;5068521;28;20122;-80
2021/07/07 07:32:50;;;;;;;8.43;2.00;;;17.70;99.90;;;;;;5050894;28;20040;-80
2021/07/07 07:35:19;;;;;;;6.60;1.98;;;17.80;99.90;;;;;;5033202;28;20060;-79
2021/07/07 07:38:02;;;;;;;8.13;2.00;;;17.80;99.90;;;;;;5067625;28;20049;-81
2021/07/07 07:40:38;;;;;;;7.82;2.15;;;17.90;99.90;;;;;;5050274;28;20042;-81
2021/07/07 07:43:08;;;;;;;5.43;2.35;;;18.00;99.90;;;;;;5051322;28;20053;-81
2021/07/07 07:45:37;;;;;;;8.48;2.10;;;18.10;99.90;;;;;;5068090;28;20101;-80
2021/07/07 07:48:06;;;;;;;5.63;2.33;;;18.10;99.90;;;;;;5034047;28;20064;-80
2021/07/07 07:50:33;;;;;;;6.30;2.03;;;18.20;99.90;;;;;;5051243;28;20045;-89
2021/07/07 07:53:00;;;;;;;5.88;2.10;;;18.20;99.90;;;;;;5050481;28;20041;-80
2021/07/07 07:55:26;;;;;;;5.18;2.08;;;18.30;99.90;;;;;;5033692;28;20045;-81
2021/07/07 07:57:53;;;;;;;6.40;2.05;;;18.30;99.90;;;;;;5034304;28;20041;-81
2021/07/07 08:00:23;;;;;;;7.50;2.10;;;18.40;99.90;;;;;;5050164;28;20486;-82
2021/07/07 08:02:51;;;;;;;4.95;2.08;;;18.50;99.90;;;;;;5050714;28;20496;-83
2021/07/07 08:05:19;;;;;;;6.90;2.20;;;18.60;99.90;;;;;;5067406;28;20504;-82
2021/07/07 08:07:46;;;;;;;5.82;1.88;;;18.60;99.90;;;;;;5050449;28;20083;-82
2021/07/07 08:10:18;;;;;;;5.60;2.17;;;18.70;99.90;;;;;;5067962;28;20049;-82
2021/07/07 08:12:52;;;;;;;6.83;2.23;;;18.80;99.90;;;;;;5051122;28;20120;-83
2021/07/07 08:15:20;;;;;;;5.00;2.22;;;18.90;99.90;;;;;;5050651;28;20284;-82
2021/07/07 08:17:47;;;;;;;6.15;2.17;;;19.00;99.90;;;;;;5068551;28;20552;-83
2021/07/07 08:20:14;;;;;;;6.38;2.20;;;19.00;99.90;;;;;;5067816;28;20045;-82
2021/07/07 08:22:41;;;;;;;6.00;1.83;;;19.20;99.90;;;;;;5068522;28;20042;-82
2021/07/07 08:25:10;;;;;;;7.32;2.20;;;19.30;99.90;;;;;;5067496;28;20108;-81
2021/07/07 08:27:39;;;;;;;7.70;2.25;;;19.40;99.90;;;;;;5050722;28;20052;-81
2021/07/07 08:30:08;;;;;;;5.22;2.00;;;19.50;99.90;;;;;;5067552;28;20052;-81
2021/07/07 08:32:35;;;;;;;4.97;1.70;;;19.50;99.90;;;;;;5067531;28;20049;-82
2021/07/07 08:35:03;;;;;;;7.97;1.90;;;19.70;99.90;;;;;;5050365;28;20049;-82
2021/07/07 08:37:31;;;;;;;7.07;2.03;;;19.80;99.90;;;;;;5067840;28;20088;-82
2021/07/07 08:39:58;;;;;;;5.53;1.70;;;19.90;99.90;;;;;;5067591;28;20040;-81
2021/07/07 08:42:26;;;;;;;8.43;1.90;;;20.00;99.90;;;;;;5067446;28;20042;-80
2021/07/07 08:44:53;;;;;;;8.23;1.92;;;20.20;99.90;;;;;;5068507;28;20050;-82
2021/07/07 08:47:19;;;;;;;6.28;1.92;;;20.20;99.90;;;;;;5067296;28;20091;-81
2021/07/07 08:49:50;;;;;;;6.38;2.10;;;20.30;99.90;;;;;;5067412;28;20046;-87
2021/07/07 08:52:17;;;;;;;6.78;1.98;;;20.30;99.90;;;;;;5034546;28;20064;-86
2021/07/07 08:54:47;;;;;;;6.43;2.17;;;20.30;99.90;;;;;;5050081;28;20053;-86
2021/07/07 08:57:14;;;;;;;5.90;1.90;;;20.40;99.90;;;;;;5050801;28;20046;-86
2021/07/07 08:59:41;;;;;;;8.95;2.20;;;20.30;99.90;;;;;;5050737;28;20052;-87
2021/07/07 09:02:11;;;;;;;7.40;2.33;;;20.40;99.90;;;;;;5034210;28;20148;-86
2021/07/07 09:04:42;;;;;;;7.07;2.13;;;20.40;99.90;;;;;;5050803;28;20077;-88
2021/07/07 09:07:10;;;;;;;8.82;2.30;;;20.50;99.90;;;;;;5050510;28;20076;-86
2021/07/07 09:09:48;;;;;;;8.80;2.17;;;20.50;99.90;;;;;;5035998;28;20069;-86
2021/07/07 09:12:36;;;;;;;8.73;2.15;;;20.50;99.90;;;;;;5039313;28;20189;-86
2021/07/07 09:15:10;;;;;;;8.15;2.40;;;20.40;99.90;;;;;;5065139;28;20482;-86
2021/07/07 09:17:53;;;;;;;7.53;2.40;;;20.50;99.90;;;;;;5067956;28;20045;-86
2021/07/07 09:20:26;;;;;;;8.38;2.33;;;20.50;99.90;;;;;;5033638;28;20046;-86
2021/07/07 09:23:18;;;;;;;7.25;2.17;;;20.70;99.90;;;;;;5067673;28;20045;-85
2021/07/07 09:25:56;;;;;;;7.45;2.20;;;20.80;99.90;;;;;;5034523;28;20444;-86
2021/07/07 09:28:33;;;;;;;8.35;2.63;;;20.80;99.90;;;;;;5049762;28;20482;-86
2021/07/07 09:31:07;;;;;;;6.80;2.08;;;20.90;99.90;;;;;;5067746;28;20114;-87
2021/07/07 09:34:17;;;;;;;6.05;2.30;;;21.10;99.90;;;;;;5039201;28;20045;-87
2021/07/07 09:36:47;;;;;;;8.13;2.55;;;21.30;99.90;;;;;;5067278;28;20056;-86
2021/07/07 09:39:20;;;;;;;6.53;2.08;;;21.40;99.90;;;;;;5034836;28;20107;-85
2021/07/07 09:41:49;;;;;;;11.60;2.58;;;21.50;99.90;;;;;;5033966;28;20049;-86
2021/07/07 09:44:36;;;;;;;9.98;2.35;;;21.60;99.90;;;;;;5041526;28;20140;-86
2021/07/07 09:47:04;;;;;;;7.85;2.30;;;21.70;99.90;;;;;;5020958;28;20053;-86
2021/07/07 09:49:34;;;;;;;7.65;2.30;;;21.60;99.90;;;;;;5053147;28;20050;-85
2021/07/07 09:52:26;;;;;;;5.95;1.90;;;21.60;99.90;;;;;;5042248;28;20084;-85
2021/07/07 09:54:55;;;;;;;13.05;2.50;;;21.70;99.90;;;;;;5052805;28;20049;-85
2021/07/07 09:57:23;;;;;;;11.18;2.38;;;21.90;99.90;;;;;;5053405;28;20053;-84
2021/07/07 09:59:55;;;;;;;9.02;2.55;;;22.10;99.90;;;;;;5054178;28;20038;-85
2021/07/07 10:02:23;;;;;;;9.55;2.30;;;22.20;99.90;;;;;;5053141;28;20052;-86
2021/07/07 10:05:14;;;;;;;8.02;2.35;;;22.30;99.90;;;;;;5029061;28;20487;-81
2021/07/07 10:08:01;;;;;;;7.20;2.10;;;22.30;99.90;;;;;;5055322;28;20053;-81
2021/07/07 10:10:48;;;;;;;6.65;2.40;;;22.40;99.90;;;;;;5028491;28;20091;-81
2021/07/07 10:13:15;;;;;;;7.38;2.30;;;22.50;99.90;;;;;;5035858;28;20448;-79
2021/07/07 10:16:05;;;;;;;9.48;2.50;;;22.60;99.90;;;;;;5055903;28;20563;-82
2021/07/07 10:18:53;;;;;;;7.72;2.22;;;22.70;99.90;;;;;;5029414;28;20036;-86
2021/07/07 10:21:22;;;;;;;8.75;2.60;;;22.80;99.90;;;;;;5053242;28;20054;-86
2021/07/07 10:23:50;;;;;;;7.13;1.95;;;22.80;99.90;;;;;;5037012;28;20049;-85
2021/07/07 10:26:22;;;;;;;8.50;2.10;;;22.90;99.90;;;;;;5021118;28;20103;-87
2021/07/07 10:28:55;;;;;;;6.80;2.30;;;22.90;99.90;;;;;;5037247;28;20069;-85
2021/07/07 10:31:49;;;;;;;7.53;2.42;;;23.00;99.90;;;;;;5052691;28;20049;-89
2021/07/07 10:34:18;;;;;;;7.80;2.50;;;23.10;99.90;;;;;;5053453;28;20070;-85
2021/07/07 10:36:44;;;;;;;8.48;2.20;;;23.30;99.90;;;;;;5052611;28;20053;-87
2021/07/07 10:39:13;;;;;;;5.75;2.00;;;23.20;99.90;;;;;;5036669;28;20042;-88
2021/07/07 10:44:23;;;;;;;7.60;2.30;;;23.20;99.90;;;;;;5070734;28;20054;-84
2021/07/07 10:47:16;;;;;;;7.78;2.28;;;23.30;99.90;;;;;;5053537;28;20433;-83
2021/07/07 10:49:46;;;;;;;9.50;2.00;;;23.40;99.90;;;;;;5052670;28;20069;-88
2021/07/07 10:52:31;;;;;;;7.95;2.05;;;23.30;99.90;;;;;;5037171;28;20045;-86
2021/07/07 10:54:59;;;;;;;;;;;23.30;99.90;;;;;;5071154;28;20119;-87
2021/07/07 10:57:35;;;;;;;10.35;2.35;;;23.40;99.90;;;;;;5037441;28;19925;-87
2021/07/07 11:00:30;;;;;;;6.53;2.00;;;23.50;99.90;;;;;;5054293;28;20042;-86
2021/07/07 11:03:19;;;;;;;6.78;2.03;;;23.80;99.90;;;;;;5053773;28;20038;-86
2021/07/07 11:05:47;;;;;;;7.38;2.08;;;24.10;99.90;;;;;;5069135;28;20048;-83
2021/07/07 11:08:21;;;;;;;7.85;2.10;;;24.20;99.90;;;;;;5069945;28;20468;-86
2021/07/07 11:11:22;;;;;;;6.93;2.10;;;24.10;99.90;;;;;;5052985;28;20037;-87
2021/07/07 11:13:53;;;;;;;5.93;1.95;;;24.10;99.90;;;;;;5053398;28;20095;-87
2021/07/07 11:16:28;;;;;;;8.18;2.05;;;24.10;99.90;;;;;;5037140;28;20046;-84
2021/07/07 11:18:54;;;;;;;8.48;2.03;;;23.90;99.90;;;;;;5019377;28;20565;-84
2021/07/07 11:21:37;;;;;;;6.07;2.03;;;23.80;99.90;;;;;;5051861;28;20053;-89
2021/07/07 11:24:19;;;;;;;8.70;1.80;;;23.70;99.90;;;;;;5037990;28;20077;-88
2021/07/07 11:26:51;;;;;;;5.35;1.67;;;23.70;99.90;;;;;;5051984;28;20045;-88
2021/07/07 11:29:46;;;;;;;6.47;2.03;;;23.90;99.90;;;;;;5068031;28;20045;-91
2021/07/07 11:32:36;;;;;;;7.72;2.03;;;24.00;99.90;;;;;;5037853;28;20096;-88
2021/07/07 11:35:12;;;;;;;7.93;2.10;;;24.30;99.90;;;;;;5035384;28;20060;-88
2021/07/07 11:37:45;;;;;;;6.47;1.63;;;24.30;99.10;;;;;;5035409;28;20060;-92
2021/07/07 11:40:37;;;;;;;7.65;2.22;;;24.50;99.90;;;;;;5056073;28;20485;-92
2021/07/07 11:43:28;;;;;;;7.50;1.73;;;24.70;99.90;;;;;;5055546;28;20489;-91
2021/07/07 11:46:11;;;;;;;8.63;2.15;;;24.60;98.70;;;;;;5046694;28;20072;-88
2021/07/07 11:48:51;;;;;;;4.55;1.63;;;24.50;99.30;;;;;;5055187;28;20497;-93
2021/07/07 11:51:23;;;;;;;6.80;1.50;;;24.30;98.90;;;;;;5056390;28;20051;-89
2021/07/07 11:53:54;;;;;;;8.48;1.80;;;24.40;99.80;;;;;;5068564;28;20037;-91
2021/07/07 11:56:41;;;;;;;7.45;2.03;;;24.10;98.40;;;;;;5055552;28;20052;-90
2021/07/07 11:59:11;;;;;;;12.10;2.28;;;23.90;99.90;;;;;;5055423;28;20603;-89
2021/07/07 12:01:37;;;;;;;7.40;1.67;;;23.60;99.90;;;;;;5042784;28;20119;-89
2021/07/07 12:04:06;;;;;;;7.28;1.90;;;23.50;99.90;;;;;;5028840;28;20041;-89
2021/07/07 12:06:41;;;;;;;6.97;2.00;;;23.40;99.90;;;;;;5055190;28;20059;-88
2021/07/07 12:09:19;;;;;;;7.63;2.08;;;23.50;99.90;;;;;;5055826;28;20068;-86
2021/07/07 12:11:53;;;;;;;8.32;2.00;;;23.70;99.90;;;;;;5071448;28;20072;-88
2021/07/07 12:14:23;;;;;;;8.80;1.75;;;23.90;99.90;;;;;;5072099;28;20052;-88
2021/07/07 12:16:51;;;;;;;13.80;1.80;;;23.70;99.80;;;;;;5038852;28;20143;-89
2021/07/07 12:19:18;;;;;;;6.70;2.03;;;23.70;99.90;;;;;;5061349;28;20041;-87
2021/07/07 12:21:45;;;;;;;5.70;1.88;;;23.60;99.90;;;;;;5078190;28;20092;-88
2021/07/07 12:24:32;;;;;;;8.02;1.83;;;23.60;99.90;;;;;;5042833;28;20049;-89
2021/07/07 12:27:02;;;;;;;6.88;1.90;;;23.50;99.90;;;;;;5054705;28;20075;-89
2021/07/07 12:29:34;;;;;;;5.38;1.80;;;23.60;99.90;;;;;;5071574;28;20099;-89
2021/07/07 12:32:04;;;;;;;4.53;1.85;;;23.60;99.90;;;;;;5043832;28;20049;-87
2021/07/07 12:34:56;;;;;;;9.38;1.80;;;23.60;99.90;;;;;;5046035;28;20053;-88
2021/07/07 12:37:24;;;;;;;5.07;1.58;;;23.90;99.90;;;;;;5075235;28;20103;-89
2021/07/07 12:39:53;;;;;;;7.63;1.83;;;24.10;99.90;;;;;;5052117;28;20054;-80
2021/07/07 12:42:40;;;;;;;8.68;1.90;;;24.30;99.90;;;;;;5048945;28;20462;-81
2021/07/07 12:45:12;;;;;;;5.88;1.73;;;24.30;99.90;;;;;;5068130;28;20049;-80
2021/07/07 12:47:46;;;;;;;6.60;1.95;;;24.40;99.90;;;;;;5086415;28;20516;-79
2021/07/07 12:50:23;;;;;;;6.10;1.75;;;24.30;99.70;;;;;;5082013;28;20044;-77
2021/07/07 12:52:50;;;;;;;12.73;1.90;;;24.20;99.90;;;;;;5046258;28;20046;-77
2021/07/07 12:55:28;;;;;;;8.98;1.80;;;23.90;99.90;;;;;;5067124;28;20049;-78
2021/07/07 12:58:05;;;;;;;7.35;2.08;;;23.60;99.10;;;;;;5082994;28;20057;-78
2021/07/07 13:00:32;;;;;;;6.38;1.90;;;23.40;99.10;;;;;;5080243;28;20045;-78
2021/07/07 13:03:05;;;;;;;7.75;1.90;;;23.20;99.90;;;;;;5064814;28;20111;-78
2021/07/07 13:05:56;;;;;;;9.95;2.17;;;23.00;99.90;;;;;;5069770;28;20049;-78